Flight Track Log - Related Links

Times and Time Zones

All times are in EDT time to prevent confusion due to time zone crossing. See the AAL971 flight status page for this flight to view local times or setup timezone preferences in your user account.

Time Position Orientation Groundspeed Altitude Reporting Facility
EDT Latitude Longitude Course Direction KTS MPH feet Rate Location/Type
Sun 01:00:30 PM 25.7970 -80.2720 180° South  Level FlightAware ADS-B
Sun 01:06:26 PM 25.8020 -80.2790 270° West 110 127 164 Level FlightAware ADS-B
Sun 01:06:46 PM 25.8010 -80.2960 266° West 175 201 1,435 Level FlightAware ADS-B
Sun 01:07:12 PM 25.8000 -80.3200 267° West 175 201 1,100 2,217 Climbing FlightAware ADS-B
Sun 01:07:32 PM 25.7980 -80.3380 263° West 182 209 1,700 1,610 Climbing FlightAware ADS-B
Sun 01:07:53 PM 25.7970 -80.3580 267° West 208 239 2,200 1,091 Climbing FlightAware ADS-B
Sun 01:08:05 PM 25.7960 -80.3710 265° West 223 257 2,300 1,161 Climbing FlightAware ADS-B
Sun 01:08:24 PM 25.7940 -80.3960 265° West 246 283 2,800 2,045 Climbing FlightAware ADS-B
Sun 01:08:49 PM 25.7920 -80.4300 266° West 265 305 3,800 2,591 Climbing FlightAware ADS-B
Sun 01:09:08 PM 25.7850 -80.4540 252° West 266 306 4,700 2,897 Climbing FlightAware ADS-B
Sun 01:09:18 PM 25.7770 -80.4640 228° Southwest 262 302 5,200 2,571 Climbing FlightAware ADS-B
Sun 01:09:29 PM 25.7660 -80.4720 213° Southwest 265 305 5,600 2,800 Climbing FlightAware ADS-B
Sun 01:09:33 PM 25.7610 -80.4750 208° Southwest 266 306 5,900 3,000 Climbing FlightAware ADS-B
Sun 01:09:39 PM 25.7540 -80.4770 194° South 267 307 6,100 2,400 Climbing FlightAware ADS-B
Sun 01:09:48 PM 25.7420 -80.4780 184° South 273 314 6,500 2,690 Climbing FlightAware ADS-B
Sun 01:10:08 PM 25.7150 -80.4750 174° South 284 327 7,400 2,634 Climbing FlightAware ADS-B
Sun 01:10:29 PM 25.6890 -80.4710 172° South 280 322 8,300 2,739 Climbing FlightAware ADS-B
Sun 01:10:54 PM 25.6550 -80.4670 174° South 279 321 9,500 1,957 Climbing FlightAware ADS-B
Sun 01:11:15 PM 25.6430 -80.4670 180° South 290 334 9,800 1,309 Climbing FlightAware ADS-B
Sun 01:11:49 PM 25.5770 -80.4730 185° South 327 376 10,700 1,688 Climbing FlightAware ADS-B
Sun 01:12:19 PM 25.5310 -80.4820 190° South 349 402 11,600 2,031 Climbing FlightAware ADS-B
Sun 01:12:54 PM 25.4770 -80.5030 199° South 361 415 12,900 2,348 Climbing FlightAware ADS-B
Sun 01:13:28 PM 25.4200 -80.5260 200° South 373 429 14,300 2,348 Climbing FlightAware ADS-B
Sun 01:14:03 PM 25.3610 -80.5490 199° South 380 437 15,600 2,314 Climbing FlightAware ADS-B
Sun 01:14:38 PM 25.3020 -80.5730 200° South 396 456 17,000 2,486 Climbing FlightAware ADS-B
Sun 01:15:13 PM 25.2420 -80.5950 198° South 392 451 18,500 2,364 Climbing FlightAware ADS-B
Sun 01:15:44 PM 25.1860 -80.6170 200° South 399 459 19,600 1,971 Climbing FlightAware ADS-B
Sun 01:16:23 PM 25.1160 -80.6450 200° South 411 473 20,800 1,823 Climbing FlightAware ADS-B
Sun 01:17:03 PM 25.0410 -80.6740 199° South 430 495 22,000 1,760 Climbing FlightAware ADS-B
Sun 01:17:38 PM 24.9730 -80.7010 200° South 440 506 23,000 1,520 Climbing FlightAware ADS-B
Sun 01:18:18 PM 24.9060 -80.7270 199° South 448 516 23,900 1,543 Climbing FlightAware ADS-B
Sun 01:18:48 PM 24.8370 -80.7550 200° South 458 527 24,800 1,545 Climbing FlightAware ADS-B
Sun 01:19:24 PM 24.7700 -80.7810 199° South 465 535 25,600 1,377 Climbing FlightAware ADS-B
Sun 01:19:49 PM 24.7150 -80.8020 199° South 463 533 26,200 1,458 Climbing FlightAware ADS-B
Sun 01:21:11 PM 24.5460 -80.8680 200° South 478 550 28,200 1,513 Climbing FlightAware ADS-B
Sun 01:21:44 PM 24.4700 -80.8980 200° South 479 551 29,100 1,714 Climbing FlightAware ADS-B
Sun 01:22:21 PM 24.3940 -80.9270 199° South 474 545 30,200 1,619 Climbing FlightAware ADS-B
Sun 01:22:47 PM 24.3390 -80.9480 199° South 477 549 30,800 533 Climbing FlightAware ADS-B
Sun 01:23:51 PM 24.2360 -80.9880 200° South 475 547 31,000 108 Climbing FlightAware ADS-B
Sun 01:24:38 PM 24.1060 -81.0390 200° South 476 548 31,000  Level FlightAware ADS-B
Sun 01:25:09 PM 24.0440 -81.0630 199° South 482 555 31,000  Level FlightAware ADS-B
Sun 01:25:53 PM 23.9510 -81.0990 199° South 481 554 31,000 532 Level FlightAware ADS-B
Sun 01:26:28 PM 23.8760 -81.1280 199° South 478 550 31,700 918 Climbing FlightAware ADS-B
Sun 01:27:18 PM 23.7870 -81.1620 199° South 478 550 32,300 419 Climbing FlightAware ADS-B
Sun 01:27:54 PM 23.7230 -81.1860 199° South 478 550 32,300 1,636 Level FlightAware ADS-B
Sun 01:28:35 PM 23.6110 -81.2300 200° South 479 551 34,400 2,100 Climbing FlightAware ADS-B
Sun 01:29:14 PM 23.5280 -81.2610 199° South 480 552 35,100 973 Climbing FlightAware ADS-B
Sun 01:29:49 PM 23.4570 -81.2880 199° South 481 554 35,600 800 Climbing FlightAware ADS-B
Sun 01:30:29 PM 23.3720 -81.3210 200° South 481 554 36,100 720 Climbing FlightAware ADS-B
Sun 01:31:04 PM 23.3040 -81.3470 199° South 477 549 36,500 592 Climbing FlightAware ADS-B
Sun 01:31:40 PM 23.2280 -81.3760 199° South 477 549 36,800 243 Climbing FlightAware ADS-B
Sun 01:32:18 PM 23.1610 -81.4010 199° South 477 549 36,800  Level FlightAware ADS-B
Sun 01:32:54 PM 23.0970 -81.4250 199° South 477 549 36,800 593 Level FlightAware ADS-B
Sun 01:33:39 PM 22.9730 -81.4710 199° South 479 551 37,600 710 Climbing FlightAware ADS-B
Sun 01:34:27 PM 22.8710 -81.5040 197° South 484 557 37,900 457 Climbing FlightAware ADS-B
Sun 01:35:11 PM 22.7850 -81.5330 197° South 472 543 38,300 300 Climbing FlightAware ADS-B
Sun 01:35:47 PM 22.7210 -81.5540 197° South 472 543 38,300  Level FlightAware ADS-B
Sun 01:36:23 PM 22.6570 -81.5760 198° South 472 543 38,300  Level FlightAware ADS-B
Sun 01:36:59 PM 22.5930 -81.5970 197° South 472 543 38,300  Level FlightAware ADS-B
Sun 01:37:25 PM 22.5470 -81.6120 197° South 472 543 38,300  Level FlightAware ADS-B
Sun 01:38:13 PM 22.4620 -81.6400 197° South 472 543 38,300  Level FlightAware ADS-B
Sun 01:38:47 PM 22.4010 -81.6600 197° South 472 543 38,300  Level FlightAware ADS-B
Sun 01:39:23 PM 22.3370 -81.6810 197° South 472 543 38,300  Level FlightAware ADS-B
Sun 01:39:59 PM 22.2740 -81.7020 197° South 472 543 38,300  Level FlightAware ADS-B
Sun 01:41:11 PM 22.1460 -81.7450 197° South 472 543 38,300  Level FlightAware ADS-B
Sun 01:41:49 PM 22.0780 -81.7670 197° South 472 543 38,300  Level FlightAware ADS-B
Sun 01:42:25 PM 22.0140 -81.7880 197° South 472 543 38,300  Level FlightAware ADS-B
Sun 01:42:37 PM 21.9930 -81.7950 197° South 472 543 38,300  Level FlightAware ADS-B
Sun 01:43:57 PM 21.8510 -81.8420 197° South 472 543 38,300  Level FlightAware ADS-B
Sun 01:44:33 PM 21.7870 -81.8630 197° South 472 543 38,300  Level FlightAware ADS-B
Sun 01:47:00 PM 21.5086 -81.9525 197° South  Level FlightAware Approximate
Sun 01:48:00 PM 21.3950 -81.9889 197° South  Level FlightAware Approximate
Sun 01:49:00 PM 21.2813 -82.0253 197° South  Level FlightAware Approximate
Sun 01:50:00 PM 21.1676 -82.0616 197° South  Level FlightAware Approximate
Sun 01:51:00 PM 21.0540 -82.0979 197° South  Level FlightAware Approximate
Sun 01:52:00 PM 20.9403 -82.1341 197° South  Level FlightAware Approximate
Sun 01:53:00 PM 20.8266 -82.1702 197° South  Level FlightAware Approximate
Sun 01:54:00 PM 20.7129 -82.2064 197° South  Level FlightAware Approximate
Sun 01:55:00 PM 20.5992 -82.2424 197° South  Level FlightAware Approximate
Sun 01:56:00 PM 20.4855 -82.2784 197° South  Level FlightAware Approximate
Sun 01:57:00 PM 20.3718 -82.3143 197° South  Level FlightAware Approximate
Sun 01:58:00 PM 20.2581 -82.3502 196° South  Level FlightAware Approximate
Sun 01:59:00 PM 20.1443 -82.3860 196° South  Level FlightAware Approximate
Sun 02:00:00 PM 20.0328 -82.4206 210° Southwest  Level FlightAware Approximate
Sun 02:01:00 PM 19.9298 -82.4833 210° Southwest  Level FlightAware Approximate
Sun 02:02:00 PM 19.8268 -82.5459 210° Southwest  Level FlightAware Approximate
Sun 02:03:00 PM 19.7238 -82.6083 210° Southwest  Level FlightAware Approximate
Sun 02:04:00 PM 19.6208 -82.6707 210° Southwest  Level FlightAware Approximate
Sun 02:05:00 PM 19.5166 -82.7309 208° Southwest  Level FlightAware Approximate
Sun 02:06:00 PM 19.4122 -82.7905 208° Southwest  Level FlightAware Approximate
Sun 02:07:00 PM 19.3077 -82.8499 208° Southwest  Level FlightAware Approximate
Sun 02:08:00 PM 19.2032 -82.9093 208° Southwest  Level FlightAware Approximate
Sun 02:09:00 PM 19.0987 -82.9686 208° Southwest  Level FlightAware Approximate
Sun 02:10:00 PM 18.9941 -83.0279 208° Southwest  Level FlightAware Approximate
Sun 02:11:00 PM 18.8896 -83.0871 208° Southwest  Level FlightAware Approximate
Sun 02:12:00 PM 18.7856 -83.1474 209° Southwest  Level FlightAware Approximate
Sun 02:13:00 PM 18.6819 -83.2080 209° Southwest  Level FlightAware Approximate
Sun 02:14:00 PM 18.5781 -83.2686 209° Southwest  Level FlightAware Approximate
Sun 02:15:00 PM 18.4743 -83.3290 209° Southwest  Level FlightAware Approximate
Sun 02:16:00 PM 18.3704 -83.3895 209° Southwest  Level FlightAware Approximate
Sun 02:17:00 PM 18.2666 -83.4498 209° Southwest  Level FlightAware Approximate
Sun 02:18:00 PM 18.1627 -83.5100 209° Southwest  Level FlightAware Approximate
Sun 02:19:00 PM 18.0588 -83.5702 209° Southwest  Level FlightAware Approximate
Sun 02:20:00 PM 17.9549 -83.6303 209° Southwest  Level FlightAware Approximate
Sun 02:21:00 PM 17.8510 -83.6904 209° Southwest  Level FlightAware Approximate
Sun 02:22:00 PM 17.7470 -83.7504 209° Southwest  Level FlightAware Approximate
Sun 02:23:00 PM 17.6431 -83.8102 209° Southwest  Level FlightAware Approximate
Sun 02:24:00 PM 17.5391 -83.8701 209° Southwest  Level FlightAware Approximate
Sun 02:25:00 PM 17.4351 -83.9298 209° Southwest  Level FlightAware Approximate
Sun 02:26:00 PM 17.3272 -83.9809 202° Southwest  Level FlightAware Approximate
Sun 02:27:00 PM 17.2172 -84.0275 202° Southwest  Level FlightAware Approximate
Sun 02:28:00 PM 17.1073 -84.0741 202° Southwest  Level FlightAware Approximate
Sun 02:29:00 PM 16.9973 -84.1205 202° Southwest  Level FlightAware Approximate
Sun 02:30:00 PM 16.8873 -84.1670 202° Southwest  Level FlightAware Approximate
Sun 02:31:00 PM 16.7774 -84.2133 202° Southwest  Level FlightAware Approximate
Sun 02:32:00 PM 16.6607 -84.2625 202° Southwest  Level FlightAware Approximate
Sun 02:33:00 PM 16.5439 -84.3116 202° Southwest  Level FlightAware Approximate
Sun 02:34:00 PM 16.4272 -84.3606 202° Southwest  Level FlightAware Approximate
Sun 02:35:00 PM 16.3105 -84.4096 202° Southwest  Level FlightAware Approximate
Sun 02:36:00 PM 16.1938 -84.4586 202° Southwest  Level FlightAware Approximate
Sun 02:37:00 PM 16.0770 -84.5076 202° Southwest  Level FlightAware Approximate
Sun 02:38:00 PM 15.9603 -84.5564 202° Southwest  Level FlightAware Approximate
Sun 02:39:00 PM 15.8454 -84.6045 202° Southwest  Level FlightAware Approximate
Sun 02:40:00 PM 15.7305 -84.6525 202° Southwest  Level FlightAware Approximate
Sun 02:41:00 PM 15.6156 -84.7005 203° Southwest  Level FlightAware Approximate
Sun 02:42:00 PM 15.5011 -84.7497 203° Southwest  Level FlightAware Approximate
Sun 02:43:00 PM 15.3867 -84.7988 202° Southwest  Level FlightAware Approximate
Sun 02:44:00 PM 15.2722 -84.8479 202° Southwest  Level FlightAware Approximate
Sun 02:45:00 PM 15.1578 -84.8969 202° Southwest  Level FlightAware Approximate
Sun 02:46:00 PM 15.0433 -84.9459 202° Southwest  Level FlightAware Approximate
Sun 02:47:00 PM 14.9288 -84.9948 202° Southwest  Level FlightAware Approximate
Sun 02:48:00 PM 14.8135 -85.0442 203° Southwest  Level FlightAware Approximate
Sun 02:49:00 PM 14.6972 -85.0912 201° Southwest  Level FlightAware Approximate
Sun 02:50:00 PM 14.5807 -85.1377 201° Southwest  Level FlightAware Approximate
Sun 02:51:00 PM 14.4673 -85.1914 206° Southwest  Level FlightAware Approximate
Sun 02:52:00 PM 14.3537 -85.2446 200° South  Level FlightAware Approximate
Sun 02:53:00 PM 14.2366 -85.2893 200° South  Level FlightAware Approximate
Sun 02:54:00 PM 14.1195 -85.3339 200° South  Level FlightAware Approximate
Sun 02:55:00 PM 14.0037 -85.3815 206° Southwest  Level FlightAware Approximate
Sun 02:56:00 PM 13.8910 -85.4367 200° South  Level FlightAware Approximate
Sun 02:57:00 PM 13.7737 -85.4807 200° South  Level FlightAware Approximate
Sun 02:58:00 PM 13.6589 -85.5312 203° Southwest  Level FlightAware Approximate
Sun 02:59:00 PM 13.5426 -85.5778 200° South  Level FlightAware Approximate
Sun 03:00:00 PM 13.4253 -85.6218 200° South  Level FlightAware Approximate
Sun 03:01:00 PM 13.3090 -85.6683 203° Southwest  Level FlightAware Approximate
Sun 03:02:00 PM 13.1944 -85.7192 203° Southwest  Level FlightAware Approximate
Sun 03:03:00 PM 13.0798 -85.7701 203° Southwest  Level FlightAware Approximate
Sun 03:04:00 PM 12.9640 -85.8178 201° Southwest  Level FlightAware Approximate
Sun 03:05:00 PM 12.8482 -85.8656 203° Southwest  Level FlightAware Approximate
Sun 03:06:00 PM 12.7336 -85.9165 203° Southwest  Level FlightAware Approximate
Sun 03:07:00 PM 12.6180 -85.9647 202° Southwest  Level FlightAware Approximate
Sun 03:08:00 PM 12.5022 -86.0125 201° Southwest  Level FlightAware Approximate
Sun 03:09:00 PM 12.3859 -86.0590 201° Southwest  Level FlightAware Approximate
Sun 03:10:00 PM 12.2736 -86.1105 201° Southwest  Level FlightAware Approximate
Sun 03:11:00 PM 12.1548 -86.1488 194° South  Level FlightAware Approximate
Sun 03:12:00 PM 12.1500 -86.1500 194° South  Level FlightAware Approximate
Sun 03:13:00 PM 12.1415 -86.1682 194° South  Level Estimated
Sun 03:14:00 PM 12.1415 -86.1682 194° South  Level Estimated
Sun 03:15:00 PM 12.1415 -86.1682 194° South  Level Estimated
Sun 03:16:00 PM 12.1415 -86.1682 194° South  Level Estimated
Sun 03:17:00 PM 12.1415 -86.1682 194° South  Level Estimated
Sun 03:18:00 PM 12.1415 -86.1682 194° South  Level Estimated

Login

Don't have an account? Register now (free) for customized features, flight alerts, and more!